Time;durP1;ratioP1;P1;durP2;ratioP2;P2;SDS_P1;SDS_P2;PMS_P1;PMS_P2;Temp;Humidity;BMP_temperature;BMP_pressure;BME280_temperature;BME280_humidity;BME280_pressure;Samples;Min_cycle;Max_cycle;Signal;HPM_P1;HPM_P2
2021/12/25 00:00:36;;;;;;;2.13;0.30;;;-0.20;99.90;;;;;;4939830;28;20051;-86
2021/12/25 00:03:02;;;;;;;2.00;0.20;;;-1.80;99.90;;;;;;4975014;28;20449;-85
2021/12/25 00:05:28;;;;;;;0.35;0.20;;;-1.30;99.90;;;;;;4957688;28;20051;-84
2021/12/25 00:07:53;;;;;;;1.10;0.30;;;-1.30;99.90;;;;;;4957831;28;20512;-85
2021/12/25 00:10:19;;;;;;;3.95;0.40;;;-1.90;99.90;;;;;;4973492;28;20042;-85
2021/12/25 00:12:45;;;;;;;1.52;0.30;;;-1.90;99.90;;;;;;4957293;28;20086;-87
2021/12/25 00:15:11;;;;;;;1.25;0.30;;;-1.90;99.90;;;;;;4956334;28;20058;-85
2021/12/25 00:17:36;;;;;;;1.67;0.40;;;-0.20;99.90;;;;;;4973132;28;20047;-86
2021/12/25 00:20:04;;;;;;;0.77;0.30;;;-2.50;99.90;;;;;;4957170;28;20047;-85
2021/12/25 00:22:29;;;;;;;1.05;0.43;;;-1.90;99.90;;;;;;4945509;28;20180;-85
2021/12/25 00:24:55;;;;;;;2.50;0.30;;;-1.90;99.90;;;;;;4938113;29;20138;-85
2021/12/25 00:27:53;;;;;;;2.72;0.32;;;-1.90;99.90;;;;;;4938407;28;20150;-86
2021/12/25 00:30:27;;;;;;;2.95;0.30;;;-1.90;99.90;;;;;;4918289;29;20126;-86
2021/12/25 00:33:07;;;;;;;3.50;0.28;;;-2.00;99.90;;;;;;4916959;29;20048;-85
2021/12/25 00:35:33;;;;;;;7.35;0.40;;;-1.90;99.90;;;;;;4933487;29;20143;-86
2021/12/25 00:37:58;;;;;;;3.70;0.30;;;-1.60;99.90;;;;;;4918141;29;20561;-85
2021/12/25 00:40:24;;;;;;;3.83;0.40;;;-2.20;99.90;;;;;;4933883;29;20103;-85
2021/12/25 00:42:50;;;;;;;2.25;0.50;;;-2.20;99.90;;;;;;4933037;29;20052;-86
2021/12/25 00:45:16;;;;;;;1.77;0.40;;;-2.00;99.90;;;;;;4933628;29;20058;-86
2021/12/25 00:47:42;;;;;;;1.30;0.30;;;-2.20;99.90;;;;;;4934845;29;20055;-85
2021/12/25 00:50:09;;;;;;;0.65;0.25;;;-2.20;99.90;;;;;;4919960;29;20138;-84
2021/12/25 00:52:35;;;;;;;2.60;0.38;;;-2.40;99.90;;;;;;4917991;29;20511;-86
2021/12/25 00:55:03;;;;;;;1.27;0.40;;;-2.40;99.90;;;;;;4917974;29;20188;-86
2021/12/25 00:57:29;;;;;;;1.55;0.30;;;-0.20;99.90;;;;;;4917205;29;20047;-86
2021/12/25 00:59:55;;;;;;;2.53;0.30;;;-1.40;99.90;;;;;;4918095;29;20060;-86
2021/12/25 01:02:20;;;;;;;0.77;0.20;;;-1.10;99.90;;;;;;4917915;29;20422;-86
2021/12/25 01:04:46;;;;;;;0.88;0.20;;;-2.00;99.90;;;;;;4917790;29;20406;-85
2021/12/25 01:07:12;;;;;;;0.65;0.30;;;-2.50;99.90;;;;;;4937149;28;20130;-86
2021/12/25 01:09:39;;;;;;;1.95;0.40;;;-2.50;99.90;;;;;;4956745;28;20057;-86
2021/12/25 01:12:06;;;;;;;3.72;0.35;;;-0.90;99.90;;;;;;4973861;28;20046;-84
2021/12/25 01:14:42;;;;;;;0.85;0.20;;;-2.40;99.90;;;;;;4972368;28;20051;-85
2021/12/25 01:25:24;;;;;;;2.10;0.20;;;;;;;;;;4938510;28;20051;-85
2021/12/25 01:40:54;;;;;;;1.38;0.25;;;-2.10;99.90;;;;;;4973315;28;20062;-85
2021/12/25 01:48:49;;;;;;;1.77;0.25;;;-3.10;99.90;;;;;;4973649;28;20057;-85
2021/12/25 01:51:14;;;;;;;2.42;0.30;;;-1.30;99.90;;;;;;4956147;28;20142;-85
2021/12/25 01:53:40;;;;;;;0.47;0.20;;;-1.70;99.90;;;;;;4973594;28;20094;-86
2021/12/25 01:56:06;;;;;;;0.90;0.30;;;-3.10;99.90;;;;;;4955929;28;20057;-85
2021/12/25 01:58:36;;;;;;;0.90;0.30;;;-3.20;99.90;;;;;;4956136;28;20043;-85
2021/12/25 02:01:04;;;;;;;0.77;0.20;;;-3.30;99.90;;;;;;4955567;28;20054;-84
2021/12/25 02:03:30;;;;;;;2.13;0.20;;;-3.20;99.90;;;;;;4939985;28;20042;-84
2021/12/25 02:05:58;;;;;;;1.17;0.20;;;-3.20;99.90;;;;;;4944464;28;20450;-84
2021/12/25 02:08:25;;;;;;;0.85;0.20;;;-3.10;99.90;;;;;;4955944;28;20119;-84
2021/12/25 02:10:51;;;;;;;1.83;0.28;;;;;;;;;;4973303;28;20575;-85
2021/12/25 02:13:18;;;;;;;0.38;0.20;;;-3.10;99.90;;;;;;4944037;29;20054;-85
2021/12/25 02:15:48;;;;;;;0.35;0.20;;;-2.30;99.90;;;;;;4953853;29;20051;-85
2021/12/25 02:18:23;;;;;;;0.30;0.10;;;-3.10;99.90;;;;;;4941643;28;20047;-85
2021/12/25 02:20:56;;;;;;;0.20;0.20;;;-2.10;99.90;;;;;;4973281;28;20485;-85
2021/12/25 02:23:24;;;;;;;0.45;0.20;;;-2.00;99.90;;;;;;4973288;28;20054;-85
2021/12/25 02:25:54;;;;;;;1.08;0.20;;;-3.30;99.90;;;;;;4956162;28;20043;-85
2021/12/25 02:28:20;;;;;;;1.15;0.20;;;-1.60;99.90;;;;;;4955849;28;20137;-84
2021/12/25 02:30:48;;;;;;;0.73;0.10;;;-3.20;99.90;;;;;;4973222;28;20101;-84
2021/12/25 02:33:16;;;;;;;0.30;0.20;;;-3.20;99.90;;;;;;4973204;28;20524;-84
2021/12/25 02:35:42;;;;;;;0.10;0.10;;;-3.10;99.90;;;;;;4955679;28;20065;-84
2021/12/25 02:38:08;;;;;;;0.55;0.20;;;-3.90;99.90;;;;;;4971696;28;20476;-85
2021/12/25 02:40:34;;;;;;;0.90;0.17;;;-3.30;99.90;;;;;;4945248;28;20086;-85
2021/12/25 02:43:00;;;;;;;1.00;0.10;;;-2.10;99.90;;;;;;4942238;28;20082;-85
2021/12/25 02:45:26;;;;;;;0.85;0.20;;;-2.30;99.90;;;;;;4974520;28;20050;-85
2021/12/25 02:47:55;;;;;;;0.30;0.20;;;-3.10;99.90;;;;;;4976292;28;20061;-85
2021/12/25 02:50:27;;;;;;;0.10;0.10;;;-2.30;99.90;;;;;;4976725;28;20042;-85
2021/12/25 02:52:54;;;;;;;0.25;0.10;;;-3.20;99.90;;;;;;4965469;28;20057;-84
2021/12/25 02:55:20;;;;;;;0.50;0.13;;;-1.20;99.90;;;;;;4956968;29;20076;-84
2021/12/25 02:57:50;;;;;;;0.22;0.20;;;-2.70;99.90;;;;;;4957005;29;20130;-85
2021/12/25 03:00:28;;;;;;;0.10;0.10;;;-1.60;99.90;;;;;;4956933;29;20043;-85
2021/12/25 03:02:55;;;;;;;0.30;0.20;;;-3.30;99.90;;;;;;4939544;29;20111;-85
2021/12/25 03:05:20;;;;;;;2.70;0.20;;;-2.20;99.90;;;;;;4943058;28;20049;-85
2021/12/25 03:07:47;;;;;;;0.47;0.17;;;-2.00;99.90;;;;;;4975133;28;20034;-85
2021/12/25 03:10:15;;;;;;;0.30;0.20;;;-2.30;99.90;;;;;;4939495;29;20043;-84
2021/12/25 03:12:54;;;;;;;0.63;0.30;;;-1.40;99.90;;;;;;4939219;29;20494;-85
2021/12/25 03:15:31;;;;;;;0.10;0.10;;;-3.60;99.90;;;;;;4939292;29;20051;-85
2021/12/25 03:17:57;;;;;;;0.47;0.20;;;-3.80;99.90;;;;;;4957756;28;20119;-85
2021/12/25 03:20:24;;;;;;;0.30;0.30;;;-1.80;99.90;;;;;;4957074;28;20047;-84
2021/12/25 03:22:50;;;;;;;0.10;0.10;;;-2.80;99.90;;;;;;4939531;29;20106;-84
2021/12/25 03:25:17;;;;;;;0.47;0.20;;;-3.60;99.90;;;;;;4939171;29;20047;-84
2021/12/25 03:27:45;;;;;;;0.82;0.25;;;-3.00;99.90;;;;;;4952672;28;20085;-85
2021/12/25 03:30:17;;;;;;;0.98;0.20;;;-2.80;99.90;;;;;;4975750;28;20047;-85
2021/12/25 03:32:44;;;;;;;1.90;0.20;;;-3.70;99.90;;;;;;4975477;28;20143;-85
2021/12/25 03:35:10;;;;;;;2.58;0.20;;;-1.30;99.90;;;;;;4958455;28;20489;-84
2021/12/25 03:37:36;;;;;;;2.55;0.20;;;-2.40;99.90;;;;;;4974008;28;20047;-84
2021/12/25 03:40:03;;;;;;;0.73;0.13;;;-3.40;99.90;;;;;;4975509;28;20062;-84
2021/12/25 03:42:29;;;;;;;1.00;0.20;;;-3.80;99.90;;;;;;4957945;28;20196;-84
2021/12/25 03:44:55;;;;;;;1.05;0.20;;;-3.80;99.90;;;;;;4975444;28;20494;-84
2021/12/25 03:47:28;;;;;;;0.65;0.20;;;-3.00;99.90;;;;;;4958328;28;20086;-85
2021/12/25 03:58:15;;;;;;;1.55;0.20;;;-3.20;99.90;;;;;;4955982;29;20467;-84
2021/12/25 04:00:43;;;;;;;1.65;0.20;;;-3.90;99.90;;;;;;4956775;28;20066;-84
2021/12/25 04:03:16;;;;;;;0.43;0.13;;;-2.90;99.90;;;;;;4956669;28;20497;-84
2021/12/25 04:05:45;;;;;;;0.10;0.10;;;-3.80;99.90;;;;;;4955708;29;20504;-84
2021/12/25 04:08:14;;;;;;;0.40;0.20;;;-4.10;99.90;;;;;;4938737;29;20068;-84
2021/12/25 04:10:43;;;;;;;0.40;0.20;;;-2.80;99.90;;;;;;4941954;28;20039;-83
2021/12/25 04:13:14;;;;;;;0.20;0.10;;;-2.10;99.90;;;;;;4957236;28;20512;-84
2021/12/25 04:15:41;;;;;;;2.08;0.10;;;-4.00;99.90;;;;;;4955389;29;20498;-83
2021/12/25 04:18:07;;;;;;;0.10;0.10;;;-3.80;99.90;;;;;;4955429;29;20039;-84
2021/12/25 04:20:33;;;;;;;1.05;0.17;;;-4.00;99.90;;;;;;4960471;28;20039;-84
2021/12/25 04:25:29;;;;;;;3.72;0.20;;;-4.20;99.90;;;;;;4974987;28;20047;-84
2021/12/25 04:27:59;;;;;;;0.20;0.10;;;-4.00;99.90;;;;;;4957322;28;20105;-84
2021/12/25 05:03:26;;;;;;;1.43;0.30;;;-3.80;99.90;;;;;;4940547;28;20039;-85
2021/12/25 05:05:53;;;;;;;1.85;0.20;;;-2.40;99.90;;;;;;4968105;28;20054;-86
2021/12/25 05:08:19;;;;;;;1.45;0.35;;;-3.60;99.90;;;;;;4954898;29;20051;-85
2021/12/25 05:10:45;;;;;;;0.20;0.20;;;-3.10;99.90;;;;;;4954848;29;20067;-84
2021/12/25 05:13:11;;;;;;;1.65;0.13;;;-3.70;99.90;;;;;;4938187;28;20097;-85
2021/12/25 05:15:52;;;;;;;0.55;0.30;;;-3.80;99.90;;;;;;4954688;28;20051;-86
2021/12/25 05:18:17;;;;;;;4.45;0.30;;;-4.00;99.90;;;;;;4937377;29;20120;-84
2021/12/25 05:20:43;;;;;;;0.85;0.20;;;-2.50;99.90;;;;;;4937562;29;20059;-85
2021/12/25 05:23:09;;;;;;;0.43;0.20;;;-3.70;99.90;;;;;;4954605;29;20106;-86
2021/12/25 05:25:35;;;;;;;2.80;0.35;;;-4.00;99.90;;;;;;4955303;28;20047;-85
2021/12/25 05:28:02;;;;;;;1.10;0.35;;;-3.10;99.90;;;;;;4937650;29;20461;-84
2021/12/25 05:30:29;;;;;;;2.10;0.50;;;-4.00;99.90;;;;;;4954607;29;20047;-85
2021/12/25 05:32:55;;;;;;;1.08;0.40;;;-3.90;99.90;;;;;;4954570;29;20055;-85
2021/12/25 05:35:21;;;;;;;0.50;0.20;;;-4.00;99.90;;;;;;4938636;29;20058;-85
2021/12/25 05:37:47;;;;;;;4.28;0.38;;;-2.80;99.90;;;;;;4937367;29;20406;-84
2021/12/25 05:40:13;;;;;;;0.20;0.20;;;-4.10;99.90;;;;;;4938668;28;20054;-84
2021/12/25 05:42:39;;;;;;;0.28;0.28;;;-4.10;99.90;;;;;;4954389;29;20044;-85
2021/12/25 05:45:06;;;;;;;1.30;0.10;;;-3.10;99.90;;;;;;4937232;28;20047;-84
2021/12/25 05:47:32;;;;;;;0.10;0.10;;;-4.10;99.90;;;;;;4954618;28;20086;-84
2021/12/25 05:49:58;;;;;;;2.10;0.45;;;-4.20;99.90;;;;;;4954327;29;20405;-84
2021/12/25 05:52:25;;;;;;;2.47;0.30;;;-4.30;99.90;;;;;;4954467;29;20056;-84
2021/12/25 05:54:51;;;;;;;0.77;0.40;;;-2.20;99.90;;;;;;4954104;29;20561;-83
2021/12/25 05:57:17;;;;;;;0.43;0.20;;;-4.30;99.90;;;;;;4937849;29;20051;-84
2021/12/25 05:59:43;;;;;;;1.23;0.20;;;-3.50;99.90;;;;;;4954354;29;20093;-84
2021/12/25 06:02:09;;;;;;;0.20;0.10;;;-4.00;99.90;;;;;;4954375;29;20039;-84
2021/12/25 06:04:35;;;;;;;0.65;0.20;;;-3.50;99.90;;;;;;4937083;29;20444;-84
2021/12/25 06:07:02;;;;;;;2.50;0.30;;;-4.50;99.90;;;;;;4938090;29;20409;-84
2021/12/25 06:09:28;;;;;;;0.35;0.20;;;-4.20;99.90;;;;;;4954079;29;20062;-83
2021/12/25 06:11:53;;;;;;;1.75;0.20;;;-3.20;99.90;;;;;;4938301;28;20043;-83
2021/12/25 06:14:21;;;;;;;0.45;0.20;;;-4.70;99.90;;;;;;4962319;28;20109;-84
2021/12/25 06:16:48;;;;;;;2.97;0.20;;;-3.30;99.90;;;;;;4977138;28;20125;-84
2021/12/25 06:19:15;;;;;;;0.10;0.10;;;-4.40;99.90;;;;;;4958143;28;20393;-83
2021/12/25 06:21:42;;;;;;;0.20;0.20;;;-3.40;99.90;;;;;;4959625;28;20055;-84
2021/12/25 06:24:08;;;;;;;0.25;0.20;;;-3.90;99.90;;;;;;4975349;28;20478;-84
2021/12/25 06:26:35;;;;;;;0.60;0.10;;;-3.30;99.90;;;;;;4976809;28;20046;-84
2021/12/25 06:29:02;;;;;;;1.48;0.30;;;-4.50;99.90;;;;;;4958167;28;20051;-84
2021/12/25 06:31:28;;;;;;;1.15;0.30;;;-3.40;99.90;;;;;;4976395;28;20484;-84
2021/12/25 06:33:53;;;;;;;0.38;0.20;;;-4.80;99.90;;;;;;4976922;28;20133;-85
2021/12/25 06:36:19;;;;;;;1.27;0.10;;;-4.10;99.90;;;;;;4959351;28;20433;-85
2021/12/25 06:38:45;;;;;;;0.75;0.20;;;-4.70;99.90;;;;;;4973309;28;20043;-84
2021/12/25 06:41:12;;;;;;;0.68;0.20;;;-3.40;99.90;;;;;;4940065;29;20047;-85
2021/12/25 06:43:39;;;;;;;0.47;0.28;;;-4.00;99.90;;;;;;4957066;29;20391;-85
2021/12/25 06:46:05;;;;;;;1.05;0.25;;;-3.60;99.90;;;;;;4939814;29;20466;-84
2021/12/25 06:48:31;;;;;;;1.75;0.20;;;-4.90;99.90;;;;;;4962138;28;20097;-83
2021/12/25 06:50:56;;;;;;;1.15;0.40;;;-3.00;99.90;;;;;;4974827;28;20071;-84
2021/12/25 06:53:22;;;;;;;0.10;0.10;;;-3.30;99.90;;;;;;4976185;28;20039;-84
2021/12/25 06:55:48;;;;;;;0.70;0.20;;;-3.10;99.90;;;;;;4976154;28;20053;-84
2021/12/25 06:58:14;;;;;;;0.50;0.20;;;-3.60;99.90;;;;;;4976322;28;20401;-84
2021/12/25 07:00:39;;;;;;;0.68;0.13;;;-3.50;99.90;;;;;;4957276;28;20042;-85
2021/12/25 07:03:05;;;;;;;0.10;0.10;;;-4.90;99.90;;;;;;4959406;28;20078;-84
2021/12/25 07:05:31;;;;;;;0.30;0.30;;;-3.80;99.90;;;;;;4959378;28;20047;-85
2021/12/25 07:07:56;;;;;;;0.47;0.20;;;-4.10;99.90;;;;;;4958758;28;20109;-85
2021/12/25 07:10:23;;;;;;;0.10;0.10;;;-5.20;99.90;;;;;;4976312;28;20389;-85
2021/12/25 07:12:51;;;;;;;0.20;0.20;;;-3.00;99.90;;;;;;4958988;28;20054;-85
2021/12/25 07:15:17;;;;;;;0.22;0.10;;;-3.60;99.90;;;;;;4975221;28;20047;-84
2021/12/25 07:17:43;;;;;;;0.30;0.28;;;-5.10;99.90;;;;;;4976231;28;20039;-87
2021/12/25 07:20:10;;;;;;;0.40;0.20;;;-5.20;99.90;;;;;;4954888;28;20489;-89
2021/12/25 07:22:36;;;;;;;0.55;0.30;;;-5.10;99.90;;;;;;4961240;28;20053;-85
2021/12/25 07:25:04;;;;;;;1.38;0.20;;;-4.60;99.90;;;;;;4956553;28;20043;-86
2021/12/25 07:27:30;;;;;;;0.52;0.20;;;-5.20;99.90;;;;;;4970235;28;20509;-85
2021/12/25 07:29:55;;;;;;;1.75;0.20;;;-2.40;99.90;;;;;;4958056;28;20078;-85
2021/12/25 07:32:21;;;;;;;0.40;0.20;;;-5.20;99.90;;;;;;4988961;28;20042;-86
2021/12/25 07:34:48;;;;;;;1.85;0.20;;;-3.50;99.90;;;;;;4975638;28;20125;-86
2021/12/25 07:37:14;;;;;;;2.78;0.20;;;-4.90;99.90;;;;;;4942300;28;20489;-86
2021/12/25 07:39:41;;;;;;;0.40;0.20;;;-4.90;99.90;;;;;;4975355;28;20126;-85
2021/12/25 07:42:08;;;;;;;1.80;0.20;;;-1.90;99.90;;;;;;4955941;28;20078;-86
2021/12/25 07:44:34;;;;;;;4.95;0.73;;;-4.00;99.90;;;;;;4957982;28;20046;-85
2021/12/25 07:47:00;;;;;;;0.73;0.25;;;-4.90;99.90;;;;;;4975174;28;20066;-86
2021/12/25 07:49:27;;;;;;;3.55;0.28;;;-3.20;99.90;;;;;;4974337;28;20118;-86
2021/12/25 07:51:52;;;;;;;0.20;0.10;;;-3.40;99.90;;;;;;4956544;28;20077;-86
2021/12/25 07:54:18;;;;;;;0.15;0.15;;;-4.70;99.90;;;;;;4975119;28;20121;-87
2021/12/25 07:56:44;;;;;;;1.73;0.30;;;-4.70;99.90;;;;;;4970914;28;20043;-87
2021/12/25 07:59:11;;;;;;;0.50;0.20;;;-3.30;99.90;;;;;;4938757;29;20061;-86
2021/12/25 08:01:37;;;;;;;0.80;0.22;;;-3.90;99.90;;;;;;4922743;29;20055;-87
2021/12/25 08:04:09;;;;;;;2.38;0.20;;;-3.90;99.90;;;;;;4966764;28;20039;-88
2021/12/25 08:06:35;;;;;;;1.48;0.20;;;-3.70;99.90;;;;;;4963170;28;20106;-86
2021/12/25 08:09:03;;;;;;;0.60;0.13;;;-4.70;99.90;;;;;;4990294;28;20051;-88
2021/12/25 08:11:30;;;;;;;0.30;0.20;;;-4.80;99.90;;;;;;4958194;28;20130;-86
2021/12/25 08:13:56;;;;;;;2.88;0.32;;;-2.00;99.90;;;;;;4939381;29;20047;-86
2021/12/25 08:16:22;;;;;;;0.40;0.20;;;-4.80;99.90;;;;;;4939032;28;20050;-86
2021/12/25 08:18:48;;;;;;;1.23;0.20;;;-4.70;99.90;;;;;;4957809;28;20162;-87
2021/12/25 08:21:14;;;;;;;0.22;0.22;;;-3.30;99.90;;;;;;4957191;28;20055;-86
2021/12/25 08:23:40;;;;;;;1.33;0.20;;;-4.00;99.90;;;;;;4957574;28;20375;-86
2021/12/25 08:26:08;;;;;;;0.32;0.20;;;-4.70;99.90;;;;;;4955878;28;20397;-86
2021/12/25 08:28:34;;;;;;;2.28;1.10;;;-4.30;99.90;;;;;;4957499;28;20441;-86
2021/12/25 08:31:00;;;;;;;0.95;0.20;;;-4.60;99.90;;;;;;4958881;28;20133;-88
2021/12/25 08:33:26;;;;;;;0.93;0.20;;;-4.60;99.90;;;;;;4959543;28;20118;-86
2021/12/25 08:35:52;;;;;;;0.35;0.17;;;-3.80;99.90;;;;;;4971061;28;20138;-86
2021/12/25 08:38:17;;;;;;;2.35;0.30;;;-4.20;99.90;;;;;;4958132;28;20097;-86
2021/12/25 08:40:44;;;;;;;2.05;0.30;;;-4.00;99.90;;;;;;4991174;28;20047;-87
2021/12/25 08:43:10;;;;;;;1.48;0.20;;;-4.60;99.90;;;;;;4955897;28;20378;-85
2021/12/25 08:45:45;;;;;;;1.15;0.35;;;-4.10;99.90;;;;;;4937631;28;20466;-87
2021/12/25 08:48:20;;;;;;;0.30;0.10;;;-4.70;99.90;;;;;;4956106;28;20039;-87
2021/12/25 08:50:51;;;;;;;0.32;0.20;;;-4.50;99.90;;;;;;4955419;29;20078;-85
2021/12/25 08:53:22;;;;;;;1.67;0.20;;;-2.30;99.90;;;;;;4956215;28;20122;-86
2021/12/25 08:56:54;;;;;;;0.20;0.20;;;-4.40;99.90;;;;;;4952022;28;20424;-87
2021/12/25 08:59:19;;;;;;;3.65;0.35;;;-4.20;99.90;;;;;;4941648;28;20054;-88
2021/12/25 09:01:46;;;;;;;1.27;0.45;;;-4.30;99.90;;;;;;4956822;28;20046;-86
2021/12/25 09:04:11;;;;;;;2.00;0.25;;;-3.30;99.90;;;;;;4980792;28;20046;-88
2021/12/25 09:06:38;;;;;;;0.85;0.30;;;-4.30;99.90;;;;;;4975800;28;20054;-85
2021/12/25 09:09:08;;;;;;;2.28;0.40;;;-2.30;99.90;;;;;;4960873;28;20129;-85
2021/12/25 09:11:35;;;;;;;1.17;0.10;;;-4.10;99.90;;;;;;4956397;28;20051;-85
2021/12/25 09:14:01;;;;;;;0.77;0.30;;;-2.70;99.90;;;;;;4956609;28;20069;-85
2021/12/25 09:16:26;;;;;;;0.28;0.20;;;-3.90;99.90;;;;;;4953527;28;20050;-86
2021/12/25 09:18:52;;;;;;;0.40;0.20;;;-4.00;99.90;;;;;;4954824;29;20045;-86
2021/12/25 09:21:18;;;;;;;0.90;0.30;;;-3.80;99.90;;;;;;4937517;29;20402;-86
2021/12/25 09:23:44;;;;;;;0.57;0.30;;;-3.90;99.90;;;;;;4966120;28;20050;-86
2021/12/25 09:26:10;;;;;;;0.50;0.30;;;-4.00;99.90;;;;;;4975909;28;20454;-86
2021/12/25 09:28:36;;;;;;;1.98;0.40;;;-1.80;99.90;;;;;;4957007;28;20046;-85
2021/12/25 09:31:03;;;;;;;0.88;0.20;;;-3.80;99.90;;;;;;4973268;28;20050;-85
2021/12/25 09:33:30;;;;;;;0.80;0.20;;;-2.60;99.90;;;;;;4956462;28;20393;-84
2021/12/25 09:35:56;;;;;;;0.63;0.20;;;-2.10;99.90;;;;;;4973737;28;20050;-86
2021/12/25 09:38:22;;;;;;;0.77;0.28;;;-4.30;99.90;;;;;;4954329;28;20042;-86
2021/12/25 09:40:48;;;;;;;1.40;0.30;;;-3.70;99.90;;;;;;4956070;28;20074;-86
2021/12/25 09:43:18;;;;;;;0.90;0.30;;;-3.60;99.90;;;;;;4955797;28;20145;-86
2021/12/25 09:45:44;;;;;;;0.30;0.20;;;-3.50;99.90;;;;;;4973082;28;20055;-86
2021/12/25 09:48:09;;;;;;;0.40;0.30;;;-3.50;99.90;;;;;;4941587;28;20059;-86
2021/12/25 09:50:35;;;;;;;0.85;0.30;;;-1.70;99.90;;;;;;4977285;28;20497;-86
2021/12/25 09:53:08;;;;;;;2.85;0.30;;;-2.40;99.90;;;;;;4960199;28;20043;-85
2021/12/25 09:55:35;;;;;;;0.90;0.30;;;-3.30;99.90;;;;;;4959299;28;20054;-87
2021/12/25 09:58:01;;;;;;;4.00;0.45;;;-3.20;99.90;;;;;;4977183;28;20050;-85
2021/12/25 10:00:27;;;;;;;3.33;0.25;;;-2.80;99.90;;;;;;4957814;28;20051;-86
2021/12/25 10:02:57;;;;;;;1.63;0.20;;;-0.20;99.90;;;;;;4977535;28;20070;-86
2021/12/25 10:05:31;;;;;;;3.35;0.30;;;0.40;99.90;;;;;;4960111;28;20105;-87
2021/12/25 10:08:24;;;;;;;0.98;0.30;;;-3.10;99.90;;;;;;4977410;28;20085;-86
2021/12/25 10:10:57;;;;;;;0.93;0.30;;;-3.40;99.90;;;;;;4972696;28;20046;-85
2021/12/25 10:13:40;;;;;;;1.17;0.20;;;-2.10;99.90;;;;;;4959763;28;20069;-86
2021/12/25 10:27:12;;;;;;;3.03;0.30;;;-2.90;99.90;;;;;;4976336;28;20496;-84
2021/12/25 10:29:39;;;;;;;3.83;0.20;;;-2.80;99.90;;;;;;4976646;28;20051;-84
2021/12/25 10:32:21;;;;;;;0.20;0.20;;;-2.90;99.90;;;;;;4959364;28;20054;-85
2021/12/25 10:34:48;;;;;;;1.38;0.40;;;-2.70;99.90;;;;;;4958815;28;20050;-85
2021/12/25 10:37:17;;;;;;;3.30;0.30;;;-1.10;99.90;;;;;;4965940;28;20046;-85
2021/12/25 10:39:44;;;;;;;2.33;0.40;;;-2.80;99.90;;;;;;4978597;28;20153;-84
2021/12/25 10:42:16;;;;;;;0.77;0.20;;;-2.30;99.90;;;;;;4978501;28;20058;-84
2021/12/25 10:44:48;;;;;;;0.47;0.20;;;-2.70;99.90;;;;;;4978249;28;20105;-85
2021/12/25 10:47:16;;;;;;;2.38;0.40;;;-2.70;99.90;;;;;;4973392;28;20073;-86
2021/12/25 10:49:47;;;;;;;0.90;0.40;;;-2.90;99.90;;;;;;4958222;28;20058;-88
2021/12/25 10:52:24;;;;;;;0.30;0.30;;;-2.70;99.90;;;;;;4976069;28;20047;-86
2021/12/25 10:54:52;;;;;;;1.95;0.32;;;-2.70;99.90;;;;;;4975002;28;20105;-87
2021/12/25 10:57:38;;;;;;;0.75;0.30;;;-3.10;99.90;;;;;;4959002;28;20053;-89
2021/12/25 11:00:11;;;;;;;1.95;0.20;;;-1.40;99.90;;;;;;4975210;28;20047;-88
2021/12/25 11:02:48;;;;;;;1.40;0.30;;;-2.50;99.90;;;;;;4959187;28;20038;-88
2021/12/25 11:05:19;;;;;;;1.10;0.30;;;-2.50;99.90;;;;;;4959049;28;20129;-88
2021/12/25 11:07:46;;;;;;;0.20;0.20;;;-1.30;99.90;;;;;;4973302;28;20082;-88
2021/12/25 11:10:18;;;;;;;0.85;0.20;;;-2.40;99.90;;;;;;4977878;28;20042;-88
2021/12/25 11:12:44;;;;;;;1.60;0.30;;;-2.30;99.90;;;;;;4977836;28;20085;-87
2021/12/25 11:15:34;;;;;;;0.20;0.20;;;-1.20;99.90;;;;;;4995739;28;20046;-86
2021/12/25 11:18:08;;;;;;;1.60;0.30;;;-2.30;99.90;;;;;;4995524;28;20097;-85
2021/12/25 11:20:36;;;;;;;0.22;0.20;;;-1.70;99.90;;;;;;4961698;28;20051;-84
2021/12/25 11:23:04;;;;;;;2.40;0.50;;;-2.00;99.90;;;;;;4958539;28;20051;-87
2021/12/25 11:25:32;;;;;;;0.65;0.30;;;-1.80;99.90;;;;;;4958425;28;20090;-85
2021/12/25 11:27:59;;;;;;;2.30;0.47;;;-2.10;99.90;;;;;;4958464;28;20070;-86
2021/12/25 11:30:30;;;;;;;0.80;0.38;;;-1.90;99.90;;;;;;4958311;28;20054;-85
2021/12/25 11:32:57;;;;;;;2.38;0.30;;;-2.00;99.90;;;;;;4975949;28;20082;-86
2021/12/25 11:35:23;;;;;;;2.97;0.40;;;-1.50;99.90;;;;;;4957868;28;20054;-85
2021/12/25 11:37:51;;;;;;;2.08;0.22;;;-1.10;99.90;;;;;;4975796;28;20043;-86
2021/12/25 11:40:21;;;;;;;1.20;0.35;;;-1.70;99.90;;;;;;4956217;28;20095;-85
2021/12/25 11:42:52;;;;;;;1.02;0.32;;;-0.30;99.90;;;;;;4973844;28;20066;-88
2021/12/25 11:45:33;;;;;;;2.47;0.45;;;-2.00;99.90;;;;;;4942257;28;20062;-90
2021/12/25 11:48:18;;;;;;;0.43;0.20;;;-1.60;99.90;;;;;;4953496;28;20086;-86
2021/12/25 11:50:48;;;;;;;0.85;0.40;;;-1.90;99.90;;;;;;4958152;28;20046;-87
2021/12/25 11:56:43;;;;;;;0.80;0.30;;;-1.80;99.90;;;;;;4975194;28;20057;-88
2021/12/25 11:59:13;;;;;;;2.60;0.43;;;-1.90;99.90;;;;;;4958119;28;20051;-86
2021/12/25 12:01:48;;;;;;;1.33;0.50;;;-2.60;99.90;;;;;;4957445;28;20047;-86
2021/12/25 12:04:19;;;;;;;;;;;-0.80;99.90;;;;;;4940488;29;20122;-87
2021/12/25 12:06:56;;;;;;;2.67;0.50;;;-1.80;99.90;;;;;;4954532;28;19929;-88
2021/12/25 12:09:49;;;;;;;1.95;0.40;;;-0.80;99.90;;;;;;4975212;28;20451;-85
2021/12/25 12:12:25;;;;;;;0.88;0.40;;;-1.80;99.90;;;;;;4941331;28;20050;-85
2021/12/25 12:15:11;;;;;;;0.73;0.40;;;-1.70;99.90;;;;;;4941920;29;20088;-86
2021/12/25 12:17:38;;;;;;;4.65;0.73;;;-1.80;99.90;;;;;;4957170;29;20058;-84
2021/12/25 12:20:06;;;;;;;1.20;0.47;;;-1.70;99.90;;;;;;4958025;29;20047;-88
2021/12/25 12:25:47;;;;;;;1.10;0.40;;;-1.80;99.90;;;;;;4917586;29;20502;-84
2021/12/25 12:28:13;;;;;;;1.33;0.40;;;-1.30;99.90;;;;;;4929839;29;20441;-84
2021/12/25 12:30:43;;;;;;;0.88;0.20;;;-1.70;99.90;;;;;;4935209;29;20052;-85
2021/12/25 12:33:12;;;;;;;2.55;0.40;;;-0.60;99.90;;;;;;4935307;29;20123;-85
2021/12/25 12:35:41;;;;;;;1.08;0.30;;;-0.70;99.90;;;;;;4933355;29;20561;-83
2021/12/25 12:41:31;;;;;;;0.47;0.37;;;-1.80;99.90;;;;;;4933298;29;20048;-87
2021/12/25 12:44:10;;;;;;;0.70;0.50;;;-1.80;99.90;;;;;;4933998;29;20086;-84
2021/12/25 12:46:48;;;;;;;1.95;0.57;;;-1.80;99.90;;;;;;4933652;29;20153;-85
2021/12/25 12:49:16;;;;;;;3.83;0.47;;;-0.90;99.90;;;;;;4933821;29;20160;-84
2021/12/25 12:51:42;;;;;;;1.48;0.52;;;-1.30;99.90;;;;;;4933778;29;20058;-84
2021/12/25 12:54:09;;;;;;;1.80;0.70;;;-2.00;99.90;;;;;;4933617;29;20060;-84
2021/12/25 12:56:36;;;;;;;1.10;0.50;;;-1.70;99.90;;;;;;4917834;29;20496;-83
2021/12/25 12:59:03;;;;;;;1.83;0.45;;;-2.00;99.90;;;;;;4933772;29;20043;-84
2021/12/25 13:01:30;;;;;;;1.48;0.43;;;-1.60;99.90;;;;;;4937590;29;20048;-84
2021/12/25 13:04:00;;;;;;;3.80;0.95;;;-2.00;99.90;;;;;;4937391;29;20043;-85
2021/12/25 13:06:30;;;;;;;2.05;0.40;;;-0.30;99.90;;;;;;4954657;29;20066;-85
2021/12/25 13:09:00;;;;;;;1.05;0.32;;;-2.40;99.90;;;;;;4936872;29;20122;-83
2021/12/25 13:11:32;;;;;;;4.55;0.63;;;-2.10;99.90;;;;;;4936932;29;20043;-85
2021/12/25 13:14:00;;;;;;;1.90;0.30;;;-2.00;99.90;;;;;;4937313;29;20060;-85
2021/12/25 13:16:35;;;;;;;0.57;0.30;;;-1.70;99.90;;;;;;4954466;28;20086;-85
2021/12/25 13:19:03;;;;;;;1.20;0.50;;;-1.90;99.90;;;;;;4921572;29;20098;-85
2021/12/25 13:21:31;;;;;;;3.78;0.47;;;-2.30;99.90;;;;;;4954296;29;20405;-85
2021/12/25 13:24:04;;;;;;;1.65;0.30;;;-0.90;99.90;;;;;;4953479;29;20138;-85
2021/12/25 13:26:35;;;;;;;1.45;0.40;;;-2.10;99.90;;;;;;4937484;28;20047;-85
2021/12/25 13:29:03;;;;;;;0.70;0.30;;;-2.10;99.90;;;;;;4937597;29;20059;-85
2021/12/25 13:31:31;;;;;;;0.57;0.40;;;-2.10;99.90;;;;;;4937540;29;20109;-85
2021/12/25 13:34:00;;;;;;;2.60;0.50;;;-2.20;99.90;;;;;;4954456;29;20043;-85
2021/12/25 13:36:35;;;;;;;1.55;0.50;;;-1.20;99.90;;;;;;4937205;29;20047;-85
2021/12/25 13:39:13;;;;;;;5.63;0.40;;;0.00;99.90;;;;;;4954314;28;20046;-85
2021/12/25 13:41:54;;;;;;;3.60;0.52;;;-2.10;99.90;;;;;;4954358;28;20310;-85
2021/12/25 13:44:29;;;;;;;4.30;0.70;;;-2.20;99.90;;;;;;4954170;28;20446;-85
2021/12/25 13:47:01;;;;;;;1.73;1.02;;;-2.10;99.90;;;;;;4965352;28;20047;-85
2021/12/25 13:49:50;;;;;;;0.52;0.40;;;-2.20;99.90;;;;;;4975164;28;20046;-87
2021/12/25 13:52:19;;;;;;;2.08;0.35;;;-2.20;99.90;;;;;;4937471;29;20054;-86
2021/12/25 13:54:56;;;;;;;3.08;0.50;;;-2.20;99.90;;;;;;4954334;29;20054;-83
2021/12/25 13:57:24;;;;;;;0.88;0.40;;;-1.30;99.90;;;;;;4954295;29;20059;-84
2021/12/25 13:59:52;;;;;;;1.92;0.50;;;-2.20;99.90;;;;;;4937398;29;20111;-85
2021/12/25 14:02:20;;;;;;;1.00;0.40;;;-2.20;99.90;;;;;;4938056;28;20494;-83
2021/12/25 14:04:48;;;;;;;1.52;0.52;;;-2.30;99.90;;;;;;4940062;28;20047;-84
2021/12/25 14:07:20;;;;;;;1.80;0.50;;;-2.30;99.90;;;;;;4973364;28;20508;-84
2021/12/25 14:09:56;;;;;;;2.60;0.50;;;-1.20;99.90;;;;;;4947298;28;20382;-82
2021/12/25 14:12:23;;;;;;;1.50;0.45;;;-2.30;99.90;;;;;;4936779;29;20047;-82
2021/12/25 14:14:51;;;;;;;1.90;0.40;;;-2.30;99.90;;;;;;4954056;29;20050;-82
2021/12/25 14:17:17;;;;;;;3.42;0.50;;;-2.30;99.90;;;;;;4953981;29;20485;-82
2021/12/25 14:19:43;;;;;;;3.33;0.43;;;-1.40;99.90;;;;;;4954232;29;20055;-82
2021/12/25 14:22:09;;;;;;;1.60;0.40;;;-2.40;99.90;;;;;;4955592;28;20451;-82
2021/12/25 14:24:46;;;;;;;1.50;0.82;;;-2.40;99.90;;;;;;4955640;28;20043;-82
2021/12/25 14:27:21;;;;;;;2.25;0.60;;;-2.40;99.90;;;;;;4953882;29;20043;-82